Time;durP1;ratioP1;P1;durP2;ratioP2;P2;SDS_P1;SDS_P2;PMS_P1;PMS_P2;Temp;Humidity;BMP_temperature;BMP_pressure;BME280_temperature;BME280_humidity;BME280_pressure;Samples;Min_cycle;Max_cycle;Signal;HPM_P1;HPM_P2
2021/10/08 00:01:28;;;;;;;9.73;8.20;;;;;;;;;;5100551;27;20813;-81
2021/10/08 00:03:56;;;;;;;8.97;8.03;;;;;;;;;;5107645;27;20479;-79
2021/10/08 00:06:23;;;;;;;10.30;8.90;;;;;;;;;;5104206;27;20451;-78
2021/10/08 00:08:51;;;;;;;12.90;9.87;;;;;;;;;;5112987;27;20451;-77
2021/10/08 00:11:18;;;;;;;10.13;9.03;;;;;;;;;;5112619;27;20462;-78
2021/10/08 00:13:46;;;;;;;11.07;9.90;;;;;;;;;;5105044;27;20493;-80
2021/10/08 00:16:14;;;;;;;10.70;8.83;;;;;;;;;;5094492;28;20470;-81
2021/10/08 00:18:42;;;;;;;9.63;8.67;;;;;;;;;;5090134;28;20431;-77
2021/10/08 00:21:09;;;;;;;13.80;9.30;;;;;;;;;;5106435;27;20457;-79
2021/10/08 00:23:37;;;;;;;9.57;8.57;;;;;;;;;;5117558;27;20450;-79
2021/10/08 00:26:04;;;;;;;9.37;8.17;;;;;;;;;;5113956;27;20463;-77
2021/10/08 00:28:32;;;;;;;13.23;10.30;;;;;;;;;;5090716;28;20435;-78
2021/10/08 00:30:59;;;;;;;10.00;7.80;;;;;;;;;;5093145;28;20477;-78
2021/10/08 00:33:28;;;;;;;10.43;8.67;;;;;;;;;;5092390;27;20486;-80
2021/10/08 00:35:55;;;;;;;10.43;8.33;;;;;;;;;;5089420;28;20459;-77
2021/10/08 00:38:22;;;;;;;9.50;8.50;;;;;;;;;;5111342;27;20811;-77
2021/10/08 00:40:49;;;;;;;11.80;9.50;;;;;;;;;;5120506;27;20448;-80
2021/10/08 00:43:19;;;;;;;9.10;8.07;;;;;;;;;;5124171;27;20553;-78
2021/10/08 00:45:47;;;;;;;10.60;8.70;;;;;;;;;;5123132;27;20446;-81
2021/10/08 00:48:14;;;;;;;11.17;8.70;;;;;;;;;;5111318;28;20444;-78
2021/10/08 00:50:45;;;;;;;12.83;9.30;;;;;;;;;;5099991;27;20455;-79
2021/10/08 00:53:12;;;;;;;9.53;8.53;;;;;;;;;;5115894;27;20482;-79
2021/10/08 00:55:42;;;;;;;10.43;9.00;;;;;;;;;;5113142;27;20443;-79
2021/10/08 00:58:10;;;;;;;10.87;8.57;;;;;;;;;;5092425;27;20448;-79
2021/10/08 01:00:40;;;;;;;11.53;9.20;;;;;;;;;;5108670;28;20458;-81
2021/10/08 01:03:07;;;;;;;10.10;8.90;;;;;;;;;;5111499;28;20465;-77
2021/10/08 01:05:34;;;;;;;10.80;8.80;;;;;;;;;;5096407;28;20930;-79
2021/10/08 01:08:02;;;;;;;11.37;8.90;;;;;;;;;;5110906;27;20943;-79
2021/10/08 01:10:30;;;;;;;12.10;9.47;;;;;;;;;;5115783;27;20450;-80
2021/10/08 01:12:57;;;;;;;11.40;8.97;;;;;;;;;;5092494;27;20478;-79
2021/10/08 01:15:24;;;;;;;10.37;8.30;;;;;;;;;;5094068;27;20995;-78
2021/10/08 01:17:52;;;;;;;9.63;8.63;;;;;;;;;;5094702;28;20466;-81
2021/10/08 01:20:21;;;;;;;12.30;8.80;;;;;;;;;;5102310;28;20458;-81
2021/10/08 01:22:48;;;;;;;9.77;8.10;;;;;;;;;;5112990;28;20485;-79
2021/10/08 01:25:16;;;;;;;12.43;10.13;;;;;;;;;;5110381;27;20819;-78
2021/10/08 01:27:43;;;;;;;11.10;8.53;;;;;;;;;;5106555;28;20460;-77
2021/10/08 01:30:11;;;;;;;10.73;8.87;;;;;;;;;;5090993;28;20435;-80
2021/10/08 01:32:39;;;;;;;11.00;8.83;;;;;;;;;;5097263;28;20474;-82
2021/10/08 01:35:06;;;;;;;10.63;8.77;;;;;;;;;;5095094;28;20487;-82
2021/10/08 01:37:35;;;;;;;12.43;9.30;;;;;;;;;;5100831;28;20458;-78
2021/10/08 01:40:03;;;;;;;11.97;8.40;;;;;;;;;;5110044;28;20461;-78
2021/10/08 01:42:31;;;;;;;9.93;8.80;;;;;;;;;;5106317;28;20542;-79
2021/10/08 01:44:59;;;;;;;9.43;8.53;;;;;;;;;;5117962;27;20458;-78
2021/10/08 01:47:26;;;;;;;9.73;8.30;;;;;;;;;;5118513;28;20953;-79
2021/10/08 01:49:53;;;;;;;11.00;9.27;;;;;;;;;;5096536;27;20452;-78
2021/10/08 01:52:21;;;;;;;11.93;8.93;;;;;;;;;;5122976;27;20480;-78
2021/10/08 01:54:49;;;;;;;10.43;8.67;;;;;;;;;;5114248;28;20809;-77
2021/10/08 01:57:17;;;;;;;10.10;8.07;;;;;;;;;;5103053;27;20467;-78
2021/10/08 01:59:44;;;;;;;11.80;9.53;;;;;;;;;;5112657;27;20449;-80
2021/10/08 02:02:11;;;;;;;9.73;8.23;;;;;;;;;;5116100;27;20441;-79
2021/10/08 02:04:39;;;;;;;11.47;8.77;;;;;;;;;;5105528;27;20439;-78
2021/10/08 02:07:12;;;;;;;12.50;8.23;;;;;;;;;;5098946;27;20861;-79
2021/10/08 02:09:39;;;;;;;10.63;8.50;;;;;;;;;;5117980;27;20446;-79
2021/10/08 02:12:08;;;;;;;11.23;8.70;;;;;;;;;;5114621;28;20847;-80
2021/10/08 02:14:36;;;;;;;8.87;7.57;;;;;;;;;;5113339;27;20543;-77
2021/10/08 02:17:03;;;;;;;10.10;8.60;;;;;;;;;;5110117;27;20449;-77
2021/10/08 02:19:31;;;;;;;10.60;9.00;;;;;;;;;;5111786;27;21502;-79
2021/10/08 02:21:58;;;;;;;10.63;8.13;;;;;;;;;;5099601;27;20463;-78
2021/10/08 02:24:35;;;;;;;12.60;8.57;;;;;;;;;;5103889;27;20507;-80
2021/10/08 02:27:02;;;;;;;9.13;7.20;;;;;;;;;;5114716;28;20931;-80
2021/10/08 02:29:31;;;;;;;14.00;8.87;;;;;;;;;;5099105;28;20447;-76
2021/10/08 02:31:58;;;;;;;9.40;8.33;;;;;;;;;;5110387;27;20466;-77
2021/10/08 02:34:25;;;;;;;9.83;8.37;;;;;;;;;;5120892;27;20478;-80
2021/10/08 02:36:52;;;;;;;10.80;8.47;;;;;;;;;;5113393;28;20438;-80
2021/10/08 02:39:19;;;;;;;11.27;8.17;;;;;;;;;;5116445;27;20445;-79
2021/10/08 02:41:46;;;;;;;10.40;8.60;;;;;;;;;;5118181;27;20444;-78
2021/10/08 02:44:14;;;;;;;8.70;7.80;;;;;;;;;;5109587;27;20466;-78
2021/10/08 02:46:42;;;;;;;10.40;8.60;;;;;;;;;;5092621;28;20442;-78
2021/10/08 02:49:09;;;;;;;12.67;8.60;;;;;;;;;;5093126;28;20439;-77
2021/10/08 02:51:36;;;;;;;9.90;8.20;;;;;;;;;;5118321;27;20817;-79
2021/10/08 02:54:04;;;;;;;11.13;8.47;;;;;;;;;;5109962;28;20981;-77
2021/10/08 02:56:31;;;;;;;9.43;7.90;;;;;;;;;;5099856;28;20451;-79
2021/10/08 02:58:58;;;;;;;9.00;7.60;;;;;;;;;;5103284;28;20431;-78
2021/10/08 03:01:26;;;;;;;8.83;7.50;;;;;;;;;;5102383;27;20438;-78
2021/10/08 03:03:54;;;;;;;8.80;7.40;;;;;;;;;;5117026;27;20470;-79
2021/10/08 03:06:21;;;;;;;8.13;7.00;;;;;;;;;;5108678;27;20444;-78
2021/10/08 03:08:49;;;;;;;11.03;8.30;;;;;;;;;;5099177;27;20458;-81
2021/10/08 03:11:21;;;;;;;10.50;8.60;;;;;;;;;;5108753;27;20789;-77
2021/10/08 03:13:48;;;;;;;9.20;7.50;;;;;;;;;;5091915;28;20471;-78
2021/10/08 03:16:16;;;;;;;9.17;8.10;;;;;;;;;;5101412;27;20458;-78
2021/10/08 03:18:43;;;;;;;10.43;7.80;;;;;;;;;;5117756;27;20438;-76
2021/10/08 03:21:11;;;;;;;9.53;8.07;;;;;;;;;;5117028;27;20430;-78
2021/10/08 03:23:38;;;;;;;9.00;7.90;;;;;;;;;;5097105;27;20478;-79
2021/10/08 03:26:05;;;;;;;10.70;8.57;;;;;;;;;;5106859;27;20454;-79
2021/10/08 03:28:33;;;;;;;9.43;8.33;;;;;;;;;;5104451;28;20435;-79
2021/10/08 03:31:00;;;;;;;9.23;8.07;;;;;;;;;;5093995;28;20943;-77
2021/10/08 03:33:27;;;;;;;8.57;7.63;;;;;;;;;;5108710;27;20455;-77
2021/10/08 03:35:54;;;;;;;9.37;7.33;;;;;;;;;;5117376;27;20470;-80
2021/10/08 03:38:23;;;;;;;9.10;7.83;;;;;;;;;;5106418;27;20925;-79
2021/10/08 03:40:59;;;;;;;10.93;7.20;;;;;;;;;;5106851;27;20949;-76
2021/10/08 03:43:26;;;;;;;11.10;8.77;;;;;;;;;;5105498;28;20999;-80
2021/10/08 03:45:54;;;;;;;10.40;9.17;;;;;;;;;;5095876;27;20466;-77
2021/10/08 03:48:35;;;;;;;11.90;9.27;;;;;;;;;;5102815;27;20447;-81
2021/10/08 03:51:04;;;;;;;12.37;9.57;;;;;;;;;;5114314;28;20442;-78
2021/10/08 03:53:32;;;;;;;13.80;9.63;;;;;;;;;;5112337;27;20467;-81
2021/10/08 03:55:59;;;;;;;12.57;10.50;;;;;;;;;;5123348;27;20474;-79
2021/10/08 03:58:26;;;;;;;13.97;10.10;;;;;;;;;;5117316;27;20435;-77
2021/10/08 04:00:54;;;;;;;11.30;9.10;;;;;;;;;;5106339;27;20454;-79
2021/10/08 04:03:21;;;;;;;9.53;8.50;;;;;;;;;;5096718;28;20485;-78
2021/10/08 04:05:48;;;;;;;9.40;8.37;;;;;;;;;;5091341;28;20443;-77
2021/10/08 04:08:15;;;;;;;9.97;8.07;;;;;;;;;;5096390;28;20448;-78
2021/10/08 04:10:44;;;;;;;11.17;8.07;;;;;;;;;;5096286;28;20495;-76
2021/10/08 04:13:11;;;;;;;11.50;8.63;;;;;;;;;;5093609;27;20467;-78
2021/10/08 04:15:38;;;;;;;10.77;8.23;;;;;;;;;;5094004;28;20487;-79
2021/10/08 04:18:05;;;;;;;10.40;7.80;;;;;;;;;;5102012;27;22173;-78
2021/10/08 04:20:32;;;;;;;9.97;8.50;;;;;;;;;;5117733;27;20469;-77
2021/10/08 04:23:00;;;;;;;10.10;8.60;;;;;;;;;;5111468;27;20463;-77
2021/10/08 04:25:27;;;;;;;10.30;8.80;;;;;;;;;;5110506;27;20459;-77
2021/10/08 04:27:55;;;;;;;10.53;8.67;;;;;;;;;;5101018;28;20455;-80
2021/10/08 04:30:23;;;;;;;9.87;8.20;;;;;;;;;;5090862;28;20798;-80
2021/10/08 04:32:50;;;;;;;11.00;8.47;;;;;;;;;;5105314;28;20474;-78
2021/10/08 04:35:17;;;;;;;9.50;7.30;;;;;;;;;;5115994;27;20469;-79
2021/10/08 04:37:44;;;;;;;9.23;8.10;;;;;;;;;;5115992;27;20456;-80
2021/10/08 04:40:12;;;;;;;8.20;7.40;;;;;;;;;;5099039;27;20439;-77
2021/10/08 04:42:39;;;;;;;10.93;8.40;;;;;;;;;;5090741;28;20459;-80
2021/10/08 04:45:08;;;;;;;8.97;8.07;;;;;;;;;;5123735;27;20461;-76
2021/10/08 04:47:35;;;;;;;9.23;7.50;;;;;;;;;;5111339;27;20454;-81
2021/10/08 04:50:03;;;;;;;11.40;8.50;;;;;;;;;;5105258;27;20450;-80
2021/10/08 04:52:30;;;;;;;11.63;8.40;;;;;;;;;;5112081;27;20548;-77
2021/10/08 04:54:57;;;;;;;9.20;8.00;;;;;;;;;;5112779;27;20492;-79
2021/10/08 04:57:24;;;;;;;8.77;7.57;;;;;;;;;;5109641;28;20461;-81
2021/10/08 04:59:51;;;;;;;10.07;8.23;;;;;;;;;;5091655;28;20984;-78
2021/10/08 05:02:20;;;;;;;11.13;8.53;;;;;;;;;;5093339;28;20485;-79
2021/10/08 05:04:47;;;;;;;9.77;7.70;;;;;;;;;;5097505;27;20550;-77
2021/10/08 05:10:04;;;;;;;9.50;7.30;;;;;;;;;;5105738;27;20807;-78
2021/10/08 05:12:31;;;;;;;9.17;7.60;;;;;;;;;;5103537;27;20551;-79
2021/10/08 05:14:58;;;;;;;9.43;6.90;;;;;;;;;;5090959;28;20483;-79
2021/10/08 05:17:27;;;;;;;9.27;7.97;;;;;;;;;;5089804;28;20442;-79
2021/10/08 05:19:54;;;;;;;9.70;7.30;;;;;;;;;;5108672;28;20466;-80
2021/10/08 05:22:21;;;;;;;8.87;7.57;;;;;;;;;;5110183;28;20458;-78
2021/10/08 05:24:49;;;;;;;9.03;7.70;;;;;;;;;;5117897;27;20865;-78
2021/10/08 05:27:21;;;;;;;8.57;7.10;;;;;;;;;;5109584;27;20458;-80
2021/10/08 05:29:49;;;;;;;8.03;6.97;;;;;;;;;;5105531;27;20548;-79
2021/10/08 05:32:26;;;;;;;7.77;6.60;;;;;;;;;;5102833;28;20516;-79
2021/10/08 05:34:55;;;;;;;7.93;7.13;;;;;;;;;;5097563;28;20509;-79
2021/10/08 05:37:22;;;;;;;8.32;7.53;;;;;;;;;;5108590;27;20454;-81
2021/10/08 05:39:49;;;;;;;7.15;6.15;;;;;;;;;;5108532;27;20192;-80
2021/10/08 05:42:16;;;;;;;7.40;6.50;;;;;;;;;;5102141;27;20575;-77
2021/10/08 05:44:51;;;;;;;6.13;5.53;;;;;;;;;;5094346;28;20450;-78
2021/10/08 05:47:18;;;;;;;5.60;5.05;;;;;;;;;;5101032;27;20199;-79
2021/10/08 05:52:13;;;;;;;7.00;6.30;;;;;;;;;;5104650;27;20465;-77
2021/10/08 05:54:41;;;;;;;5.77;5.20;;;;;;;;;;5118068;27;20196;-78
2021/10/08 05:57:08;;;;;;;6.00;5.10;;;;;;;;;;5127546;27;20447;-79
2021/10/08 05:59:35;;;;;;;6.43;5.73;;;;;;;;;;5098620;27;20458;-80
2021/10/08 06:02:21;;;;;;;8.37;5.97;;;;;;;;;;5101550;27;20459;-78
2021/10/08 06:04:48;;;;;;;6.90;5.77;;;;;;;;;;5094776;28;20903;-78
2021/10/08 06:07:16;;;;;;;8.85;5.68;;;;;;;;;;5100458;27;20458;-77
2021/10/08 06:09:50;;;;;;;9.52;6.22;;;;;;;;;;5106173;27;20240;-81
2021/10/08 06:12:17;;;;;;;10.50;6.67;;;;;;;;;;5117512;27;20546;-79
2021/10/08 06:14:44;;;;;;;7.57;6.80;;;;;;;;;;5127865;27;20431;-79
2021/10/08 06:17:12;;;;;;;7.50;5.70;;;;;;;;;;5117692;27;21872;-79
2021/10/08 06:19:40;;;;;;;6.90;6.07;;;;;;;;;;5113055;27;20470;-80
2021/10/08 06:22:08;;;;;;;9.90;5.77;;;;;;;;;;5114570;28;20442;-78
2021/10/08 06:24:36;;;;;;;6.37;5.77;;;;;;;;;;5108479;27;20513;-78
2021/10/08 06:27:04;;;;;;;7.00;6.30;;;;;;;;;;5113068;27;20990;-80
2021/10/08 06:29:31;;;;;;;7.37;6.50;;;;;;;;;;5115170;27;20473;-79
2021/10/08 06:31:58;;;;;;;6.20;5.30;;;;;;;;;;5128265;27;20454;-79
2021/10/08 06:34:25;;;;;;;7.63;6.30;;;;;;;;;;5107456;28;20900;-77
2021/10/08 06:36:52;;;;;;;7.90;6.40;;;;;;;;;;5103930;27;20498;-78
2021/10/08 06:39:19;;;;;;;7.37;5.97;;;;;;;;;;5109877;27;20446;-80
2021/10/08 06:41:48;;;;;;;6.60;5.93;;;;;;;;;;5105272;27;20452;-78
2021/10/08 06:44:15;;;;;;;7.80;5.70;;;;;;;;;;5099990;28;20482;-77
2021/10/08 06:46:42;;;;;;;5.83;5.23;;;;;;;;;;5098688;27;20430;-78
2021/10/08 06:49:10;;;;;;;7.10;6.33;;;;;;;;;;5128215;27;20460;-78
2021/10/08 06:51:37;;;;;;;11.77;6.40;;;;;;;;;;5122810;27;20541;-78
2021/10/08 06:54:04;;;;;;;6.93;5.80;;;;;;;;;;5115061;28;20484;-79
2021/10/08 06:56:32;;;;;;;7.77;6.13;;;;;;;;;;5114234;27;20481;-79
2021/10/08 06:59:00;;;;;;;7.73;6.37;;;;;;;;;;5117782;27;20425;-83
2021/10/08 07:01:27;;;;;;;6.37;5.70;;;;;;;;;;5115908;27;20459;-84
2021/10/08 07:03:54;;;;;;;7.73;5.80;;;;;;;;;;5109221;27;20457;-81
2021/10/08 07:06:21;;;;;;;8.00;6.47;;;;;;;;;;5109836;28;20453;-78
2021/10/08 07:08:49;;;;;;;8.17;6.20;;;;;;;;;;5103760;27;20811;-78
2021/10/08 07:11:16;;;;;;;8.27;5.67;;;;;;;;;;5115723;27;20439;-79
2021/10/08 07:13:43;;;;;;;8.00;5.93;;;;;;;;;;5117192;27;20487;-79
2021/10/08 07:16:12;;;;;;;7.40;6.13;;;;;;;;;;5126688;27;20473;-78
2021/10/08 07:18:40;;;;;;;7.43;6.20;;;;;;;;;;5111338;27;20462;-77
2021/10/08 07:21:07;;;;;;;7.17;6.30;;;;;;;;;;5101268;27;20486;-78
2021/10/08 07:23:35;;;;;;;7.63;6.13;;;;;;;;;;5112522;28;20454;-79
2021/10/08 07:26:02;;;;;;;6.57;5.87;;;;;;;;;;5101679;28;20458;-79
2021/10/08 07:28:29;;;;;;;6.30;5.43;;;;;;;;;;5118885;27;20441;-75
2021/10/08 07:30:56;;;;;;;6.93;6.23;;;;;;;;;;5109695;27;20803;-75
2021/10/08 07:33:27;;;;;;;6.90;6.10;;;;;;;;;;5103251;27;20475;-77
2021/10/08 07:35:55;;;;;;;6.53;5.90;;;;;;;;;;5103631;28;20475;-76
2021/10/08 07:38:22;;;;;;;6.20;5.60;;;;;;;;;;5113004;28;20439;-77
2021/10/08 07:40:49;;;;;;;8.50;6.90;;;;;;;;;;5109937;28;20442;-77
2021/10/08 07:43:16;;;;;;;6.83;6.13;;;;;;;;;;5111379;27;20853;-75
2021/10/08 07:45:43;;;;;;;8.80;7.00;;;;;;;;;;5118669;27;20434;-76
2021/10/08 07:48:11;;;;;;;6.90;6.20;;;;;;;;;;5116007;27;20463;-77
2021/10/08 07:53:24;;;;;;;7.30;6.03;;;;;;;;;;5109278;28;20823;-76
2021/10/08 07:55:52;;;;;;;6.70;6.03;;;;;;;;;;5111760;28;20470;-78
2021/10/08 07:58:21;;;;;;;7.37;6.57;;;;;;;;;;5108198;27;20457;-81
2021/10/08 08:00:48;;;;;;;8.30;5.87;;;;;;;;;;5117752;27;20423;-75
2021/10/08 08:03:15;;;;;;;6.60;6.00;;;;;;;;;;5122492;27;20465;-79
2021/10/08 08:05:44;;;;;;;8.17;6.83;;;;;;;;;;5103646;27;20524;-78
2021/10/08 08:08:11;;;;;;;6.90;6.30;;;;;;;;;;5110684;28;20446;-80
2021/10/08 08:10:38;;;;;;;6.83;5.90;;;;;;;;;;5110791;27;20462;-80
2021/10/08 08:13:06;;;;;;;6.50;5.90;;;;;;;;;;5117834;27;20473;-78
2021/10/08 08:15:33;;;;;;;6.67;5.70;;;;;;;;;;5135663;27;20474;-81
2021/10/08 08:18:00;;;;;;;6.70;5.40;;;;;;;;;;5125258;27;20452;-82
2021/10/08 08:20:29;;;;;;;7.43;6.40;;;;;;;;;;5115874;27;20430;-79
2021/10/08 08:22:58;;;;;;;7.87;5.63;;;;;;;;;;5118090;27;20499;-77
2021/10/08 08:25:27;;;;;;;6.90;6.20;;;;;;;;;;5112393;27;20460;-77
2021/10/08 08:27:54;;;;;;;9.40;6.67;;;;;;;;;;5113045;28;20445;-79
2021/10/08 08:30:36;;;;;;;7.00;6.23;;;;;;;;;;5110190;28;20470;-82
2021/10/08 08:33:05;;;;;;;9.00;6.50;;;;;;;;;;5111865;28;20875;-81
2021/10/08 08:35:33;;;;;;;6.60;5.63;;;;;;;;;;5107632;28;20945;-81
2021/10/08 08:38:02;;;;;;;7.20;5.97;;;;;;;;;;5108326;27;20468;-77
2021/10/08 08:40:29;;;;;;;6.47;5.87;;;;;;;;;;5114475;28;20524;-77
2021/10/08 08:42:57;;;;;;;6.70;5.93;;;;;;;;;;5112328;27;20476;-79
2021/10/08 08:45:24;;;;;;;7.30;5.70;;;;;;;;;;5108847;27;20479;-80
2021/10/08 08:47:58;;;;;;;5.70;5.20;;;;;;;;;;5112607;27;20946;-81
2021/10/08 08:50:25;;;;;;;7.23;5.40;;;;;;;;;;5110568;28;20437;-77
2021/10/08 08:52:53;;;;;;;8.83;6.80;;;;;;;;;;5105551;28;20472;-79
2021/10/08 08:55:21;;;;;;;7.10;6.50;;;;;;;;;;5112385;27;20442;-79
2021/10/08 08:57:49;;;;;;;6.83;6.13;;;;;;;;;;5106995;28;20484;-80
2021/10/08 09:00:18;;;;;;;6.10;5.30;;;;;;;;;;5111987;27;20454;-78
2021/10/08 09:02:46;;;;;;;6.67;5.80;;;;;;;;;;5118897;27;20454;-80
2021/10/08 09:05:17;;;;;;;6.23;5.63;;;;;;;;;;5115316;27;21313;-81
2021/10/08 09:07:44;;;;;;;6.00;5.40;;;;;;;;;;5111068;28;20450;-80
2021/10/08 09:10:13;;;;;;;6.90;4.90;;;;;;;;;;5110681;28;20449;-80
2021/10/08 09:12:43;;;;;;;8.23;5.00;;;;;;;;;;5102974;28;20491;-79
2021/10/08 09:15:10;;;;;;;6.67;6.07;;;;;;;;;;5105071;28;20438;-78
2021/10/08 09:17:38;;;;;;;7.80;5.87;;;;;;;;;;5117076;28;21985;-79
2021/10/08 09:20:06;;;;;;;7.53;5.80;;;;;;;;;;5101882;27;20456;-79
2021/10/08 09:22:49;;;;;;;8.17;5.93;;;;;;;;;;5109664;27;20568;-79
2021/10/08 09:25:18;;;;;;;7.93;6.90;;;;;;;;;;5090804;28;20439;-77
2021/10/08 09:27:48;;;;;;;8.37;5.97;;;;;;;;;;5099350;28;21000;-79
2021/10/08 09:30:16;;;;;;;8.37;6.50;;;;;;;;;;5112544;28;20515;-79
2021/10/08 09:32:44;;;;;;;5.97;5.37;;;;;;;;;;5108272;27;20478;-78
2021/10/08 09:35:12;;;;;;;6.53;5.93;;;;;;;;;;5116083;28;20502;-78
2021/10/08 09:37:41;;;;;;;7.17;5.30;;;;;;;;;;5110182;28;20478;-78
2021/10/08 09:40:22;;;;;;;6.20;5.60;;;;;;;;;;5108107;28;20446;-77
2021/10/08 09:42:57;;;;;;;7.60;6.23;;;;;;;;;;5110325;28;20457;-79
2021/10/08 09:45:39;;;;;;;7.10;6.33;;;;;;;;;;5097319;28;20472;-80
2021/10/08 09:48:07;;;;;;;6.10;5.50;;;;;;;;;;5113074;28;20449;-79
2021/10/08 09:50:34;;;;;;;7.03;5.67;;;;;;;;;;5113672;28;20441;-81
2021/10/08 09:53:09;;;;;;;10.10;6.70;;;;;;;;;;5113165;28;20441;-79
2021/10/08 09:55:36;;;;;;;7.17;6.47;;;;;;;;;;5108049;28;20455;-82
2021/10/08 09:58:04;;;;;;;8.33;6.60;;;;;;;;;;5099383;28;21112;-82
2021/10/08 10:00:36;;;;;;;7.60;5.67;;;;;;;;;;5102410;28;20451;-81
2021/10/08 10:03:04;;;;;;;9.20;6.40;;;;;;;;;;5111746;27;20465;-80
2021/10/08 10:05:31;;;;;;;8.00;6.50;;;;;;;;;;5114019;27;20791;-81
2021/10/08 10:07:59;;;;;;;7.33;5.70;;;;;;;;;;5110401;27;20469;-81
2021/10/08 10:10:26;;;;;;;6.13;5.53;;;;;;;;;;5107277;28;20548;-81
2021/10/08 10:12:54;;;;;;;5.63;5.13;;;;;;;;;;5114402;28;21073;-81
2021/10/08 10:15:23;;;;;;;5.70;5.20;;;;;;;;;;5112507;27;22870;-79
2021/10/08 10:17:50;;;;;;;7.27;5.60;;;;;;;;;;5130913;27;20837;-83
2021/10/08 10:20:17;;;;;;;6.10;5.30;;;;;;;;;;5133650;27;20491;-80
2021/10/08 10:22:46;;;;;;;5.63;4.93;;;;;;;;;;5114693;28;20474;-85
2021/10/08 10:25:14;;;;;;;5.60;5.10;;;;;;;;;;5116525;27;20487;-81
2021/10/08 10:27:42;;;;;;;5.77;5.13;;;;;;;;;;5115962;27;20472;-81
2021/10/08 10:30:10;;;;;;;9.33;5.90;;;;;;;;;;5107418;27;20955;-80
2021/10/08 10:32:39;;;;;;;6.20;5.60;;;;;;;;;;5112927;28;20459;-84
2021/10/08 10:35:06;;;;;;;5.40;4.90;;;;;;;;;;5108499;27;20433;-81
2021/10/08 10:37:37;;;;;;;5.70;5.10;;;;;;;;;;5106278;27;20486;-82
2021/10/08 10:40:19;;;;;;;5.77;5.00;;;;;;;;;;5115505;28;20454;-81
2021/10/08 10:42:47;;;;;;;9.83;5.67;;;;;;;;;;5110407;27;20439;-82
2021/10/08 10:45:21;;;;;;;7.10;6.37;;;;;;;;;;5110591;27;20452;-82
2021/10/08 10:48:11;;;;;;;5.87;5.20;;;;;;;;;;5118544;27;20409;-78
2021/10/08 10:50:48;;;;;;;6.30;5.57;;;;;;;;;;5116936;27;20926;-79
2021/10/08 10:53:16;;;;;;;7.27;6.10;;;;;;;;;;5121473;27;20534;-79
2021/10/08 10:55:43;;;;;;;9.97;6.83;;;;;;;;;;5134654;27;20437;-81
2021/10/08 10:58:11;;;;;;;8.23;6.23;;;;;;;;;;5116066;27;20920;-77
2021/10/08 11:00:41;;;;;;;7.50;5.97;;;;;;;;;;5122822;27;20424;-81
2021/10/08 11:03:13;;;;;;;6.90;6.00;;;;;;;;;;5105985;27;20456;-84
2021/10/08 11:05:42;;;;;;;7.70;6.30;;;;;;;;;;5114645;27;20487;-82
2021/10/08 11:08:13;;;;;;;8.03;7.10;;;;;;;;;;5114859;27;20574;-79
2021/10/08 11:10:42;;;;;;;6.73;6.13;;;;;;;;;;5104063;27;20438;-84
2021/10/08 11:13:26;;;;;;;8.20;7.27;;;;;;;;;;5113262;28;20478;-80
2021/10/08 11:15:54;;;;;;;7.50;6.70;;;;;;;;;;5112549;28;20445;-79
2021/10/08 11:18:36;;;;;;;7.63;6.57;;;;;;;;;;5110155;27;20459;-80
2021/10/08 11:21:05;;;;;;;7.90;7.17;;;;;;;;;;5117473;27;20926;-81
2021/10/08 11:23:36;;;;;;;7.23;6.23;;;;;;;;;;5098740;27;20479;-80
2021/10/08 11:26:04;;;;;;;10.33;6.47;;;;;;;;;;5102405;28;20428;-80
2021/10/08 11:28:32;;;;;;;6.43;5.60;;;;;;;;;;5110984;28;20448;-80
2021/10/08 11:31:00;;;;;;;7.47;5.50;;;;;;;;;;5100798;27;20482;-80
2021/10/08 11:33:35;;;;;;;7.83;6.20;;;;;;;;;;5104048;27;20800;-78
2021/10/08 11:36:17;;;;;;;8.50;5.13;;;;;;;;;;5111504;27;20428;-80
2021/10/08 11:38:46;;;;;;;7.03;5.50;;;;;;;;;;5101673;27;20498;-80
2021/10/08 11:41:15;;;;;;;7.33;5.50;;;;;;;;;;5098963;27;20454;-80
2021/10/08 11:43:42;;;;;;;7.03;6.00;;;;;;;;;;5114250;27;20474;-83
2021/10/08 11:46:18;;;;;;;5.87;5.37;;;;;;;;;;5110640;28;20525;-84
2021/10/08 11:48:49;;;;;;;6.33;5.73;;;;;;;;;;5109461;27;20749;-86
2021/10/08 11:51:16;;;;;;;7.80;5.90;;;;;;;;;;5115610;27;20409;-84
2021/10/08 11:53:44;;;;;;;5.37;4.87;;;;;;;;;;5115454;27;20440;-79
2021/10/08 11:56:24;;;;;;;9.07;6.20;;;;;;;;;;5138780;27;20503;-80
2021/10/08 11:58:51;;;;;;;7.53;6.20;;;;;;;;;;5115733;27;20489;-79
2021/10/08 12:01:22;;;;;;;7.13;5.77;;;;;;;;;;5105961;27;20460;-78
2021/10/08 12:03:50;;;;;;;5.80;5.20;;;;;;;;;;5111744;27;20456;-84
2021/10/08 12:06:24;;;;;;;8.80;5.40;;;;;;;;;;5117006;27;20507;-86
2021/10/08 12:08:52;;;;;;;7.43;6.63;;;;;;;;;;5109663;27;20431;-82
2021/10/08 12:11:21;;;;;;;5.97;5.30;;;;;;;;;;5112500;28;20541;-83
2021/10/08 12:13:50;;;;;;;6.50;5.37;;;;;;;;;;5105775;27;20471;-81
2021/10/08 12:16:18;;;;;;;7.90;5.30;;;;;;;;;;5111145;28;20441;-82
2021/10/08 12:18:47;;;;;;;6.60;5.80;;;;;;;;;;5111466;28;20482;-81
2021/10/08 12:21:18;;;;;;;6.97;5.50;;;;;;;;;;5113326;27;20425;-81
2021/10/08 12:23:45;;;;;;;5.63;4.77;;;;;;;;;;5113568;27;20798;-78
2021/10/08 12:26:13;;;;;;;5.80;4.83;;;;;;;;;;5108173;27;20521;-81
2021/10/08 12:28:41;;;;;;;5.07;4.57;;;;;;;;;;5115175;27;20781;-79
2021/10/08 12:31:09;;;;;;;4.40;3.70;;;;;;;;;;5114376;27;20443;-79
2021/10/08 12:33:37;;;;;;;5.60;3.93;;;;;;;;;;5110741;28;20461;-78
2021/10/08 12:36:19;;;;;;;4.23;3.83;;;;;;;;;;5106918;27;20465;-78
2021/10/08 12:39:02;;;;;;;4.87;4.33;;;;;;;;;;5118162;27;20464;-80
2021/10/08 12:41:33;;;;;;;3.83;3.53;;;;;;;;;;5103957;27;20778;-77
2021/10/08 12:44:16;;;;;;;4.63;3.50;;;;;;;;;;5111787;28;20477;-81
2021/10/08 12:46:45;;;;;;;3.60;3.30;;;;;;;;;;5108680;27;20931;-80
2021/10/08 12:49:13;;;;;;;4.23;3.53;;;;;;;;;;5115989;27;20412;-79
2021/10/08 12:51:49;;;;;;;4.00;3.60;;;;;;;;;;5115941;27;20509;-80
2021/10/08 12:54:17;;;;;;;4.50;4.10;;;;;;;;;;5110548;27;20456;-81
2021/10/08 12:56:45;;;;;;;4.80;3.57;;;;;;;;;;5105445;28;20498;-82
2021/10/08 12:59:12;;;;;;;4.30;3.90;;;;;;;;;;5108276;28;20430;-79
2021/10/08 13:01:53;;;;;;;3.77;3.27;;;;;;;;;;5112651;28;20420;-87
2021/10/08 13:04:22;;;;;;;5.57;3.40;;;;;;;;;;5105002;27;20777;-85
2021/10/08 13:06:50;;;;;;;4.07;3.30;;;;;;;;;;5116603;27;20407;-82
2021/10/08 13:09:20;;;;;;;4.00;3.43;;;;;;;;;;5113184;27;20941;-81
2021/10/08 13:11:48;;;;;;;3.07;2.77;;;;;;;;;;5125629;27;20478;-83
2021/10/08 13:14:19;;;;;;;3.97;3.30;;;;;;;;;;5112791;28;20456;-82
2021/10/08 13:16:47;;;;;;;6.27;3.17;;;;;;;;;;5099268;28;20854;-85
2021/10/08 13:19:29;;;;;;;3.30;2.60;;;;;;;;;;5101473;28;20466;-83
2021/10/08 13:21:56;;;;;;;4.07;3.17;;;;;;;;;;5119887;27;20533;-84
2021/10/08 13:24:23;;;;;;;3.80;3.33;;;;;;;;;;5115761;28;20438;-81
2021/10/08 13:26:50;;;;;;;3.83;3.20;;;;;;;;;;5109909;28;20548;-82
2021/10/08 13:29:18;;;;;;;3.40;2.57;;;;;;;;;;5110976;28;20437;-81
2021/10/08 13:31:45;;;;;;;3.00;2.57;;;;;;;;;;5102423;28;20460;-81
2021/10/08 13:34:13;;;;;;;3.00;2.70;;;;;;;;;;5111206;28;21006;-80
2021/10/08 13:36:41;;;;;;;4.07;2.50;;;;;;;;;;5109643;28;20548;-79
2021/10/08 13:39:09;;;;;;;2.93;2.53;;;;;;;;;;5116460;27;20471;-84
2021/10/08 13:41:36;;;;;;;3.00;2.70;;;;;;;;;;5116786;27;20446;-81
2021/10/08 13:44:03;;;;;;;2.90;2.70;;;;;;;;;;5099440;27;20835;-81
2021/10/08 13:46:31;;;;;;;3.90;3.50;;;;;;;;;;5104958;28;20469;-80
2021/10/08 13:48:58;;;;;;;4.43;2.90;;;;;;;;;;5114866;28;20444;-79
2021/10/08 13:51:25;;;;;;;4.23;2.40;;;;;;;;;;5115156;27;20462;-79
2021/10/08 13:53:53;;;;;;;2.87;2.57;;;;;;;;;;5114308;27;20943;-80
2021/10/08 13:56:20;;;;;;;6.43;2.83;;;;;;;;;;5115749;27;20449;-87
2021/10/08 13:58:48;;;;;;;3.07;2.77;;;;;;;;;;5115426;28;20482;-81
2021/10/08 14:01:15;;;;;;;4.40;3.27;;;;;;;;;;5111556;28;20450;-80
2021/10/08 14:03:49;;;;;;;2.87;2.60;;;;;;;;;;5112372;27;20481;-81
2021/10/08 14:09:09;;;;;;;3.77;2.57;;;;;;;;;;5113287;27;20442;-79
2021/10/08 14:11:36;;;;;;;3.90;3.20;;;;;;;;;;5132118;27;20802;-82
2021/10/08 14:14:03;;;;;;;3.43;2.53;;;;;;;;;;5135568;27;20465;-78
2021/10/08 14:16:30;;;;;;;3.07;2.80;;;;;;;;;;5113812;27;20458;-84
2021/10/08 14:18:57;;;;;;;2.73;2.47;;;;;;;;;;5114438;28;20444;-81
2021/10/08 14:21:25;;;;;;;3.83;2.63;;;;;;;;;;5109027;27;20460;-83
2021/10/08 14:23:52;;;;;;;3.20;2.87;;;;;;;;;;5121160;27;20494;-82
2021/10/08 14:26:20;;;;;;;4.13;2.70;;;;;;;;;;5112976;27;20461;-81
2021/10/08 14:28:47;;;;;;;3.03;2.80;;;;;;;;;;5105564;27;20465;-79
2021/10/08 14:31:14;;;;;;;6.30;2.83;;;;;;;;;;5112574;28;20442;-79
2021/10/08 14:33:42;;;;;;;4.63;2.93;;;;;;;;;;5102660;27;20485;-81
2021/10/08 14:36:09;;;;;;;3.70;3.20;;;;;;;;;;5103605;27;20455;-78
2021/10/08 14:38:36;;;;;;;3.17;2.73;;;;;;;;;;5108329;27;20480;-82
2021/10/08 14:41:03;;;;;;;3.87;2.80;;;;;;;;;;5120980;27;20475;-77
2021/10/08 14:43:31;;;;;;;3.07;2.87;;;;;;;;;;5105972;28;20467;-85
2021/10/08 14:45:59;;;;;;;3.13;2.83;;;;;;;;;;5103954;27;20797;-83
2021/10/08 14:48:26;;;;;;;5.17;3.63;;;;;;;;;;5099503;28;20454;-84
2021/10/08 14:50:53;;;;;;;2.90;2.70;;;;;;;;;;5113039;28;20782;-84
2021/10/08 14:53:22;;;;;;;3.00;2.70;;;;;;;;;;5134280;27;20461;-82
2021/10/08 14:55:58;;;;;;;3.67;2.73;;;;;;;;;;5128472;27;20532;-83
2021/10/08 14:58:25;;;;;;;3.90;3.00;;;;;;;;;;5107783;27;20481;-80
2021/10/08 15:00:53;;;;;;;3.57;2.97;;;;;;;;;;5120269;27;20429;-81